Roswell International Air Center Airport
KROW : rendu visible

Aérodrome :











RETROUVEZ-NOUS SUR...

 
LOGIN :

S'inscrire | Disclaimer

   EN    FR    IT 

 









Légende :    VFR   VFR Marginal   IFR   IFR Intensif   IFR Très Intensif
Visi : 
Plafond : 
>= 8 km
>= 3000ft
5 à 8 km
1000 à 3000 ft
1500m à 5 km
500 à 1000 ft
800 à 1500m
200 à 500 ft
< 800m
< 200 ft
Symboles :   Orages  Brouillard  Fortes neiges  Fortes précipitations  Vent > 20 kt






- Altitude de l'aérodrome : 3671 ft
- Code IATA : ROW


KROW - Roswell International Air Center

DERNIER METAR :
  • 100651Z AUTO 01012KT 10SM OVC025 05/M01 A3011 RMK AO2 SLP171 T00501006 401440050

METARs EXPIRÉS :
  • 100551Z AUTO 01010KT 10SM OVC025 06/M01 A3009 RMK AO2 SLP165 60000 T00561006 10139 20056 51027
  • 100534Z AUTO 01010KT 10SM BKN025 BKN090 06/M01 A3009 RMK AO2 T00561006
  • 100451Z AUTO 01010KT 10SM OVC085 07/01 A3007 RMK AO2 SLP156 T00720006

TAF KROW
Valide du 10 à 06h jusqu'au 11 à 06h UTC


100539Z 1006/1106 02010KT P6SM BKN025
FM101700 16009KT P6SM SCT030
FM101900 16008KT P6SM SKC



MET'MAP, la Météo Aéronautique d'un coup d'oeil ! - Copyright ORBIFLY Décembre 2007 - Disclaimer

ORBIFLY MET'MAP TEAM :

Programmation & Développement : Alexandra Zaïnal
Sur une idée originale de : Baudouin d'Aumeries
Assistance à la programmation : Marc-Olivier Méhu
Soutien technique & logistique : Manuel Goepfert

Contact : metmap@orbifly.com




SOURCES & CREDITS :

   NOAA       Earth
Advisory